createdAt,value
2023-05-21T00:00:36.307Z,1.90
2023-05-21T00:02:45.249Z,1.83
2023-05-21T00:04:54.343Z,1.80
2023-05-21T00:07:03.965Z,2.00
2023-05-21T00:09:13.060Z,2.33
2023-05-21T00:11:24.221Z,2.10
2023-05-21T00:13:33.249Z,2.27
2023-05-21T00:15:42.270Z,1.90
2023-05-21T00:17:51.496Z,2.37
2023-05-21T00:20:02.265Z,2.00
2023-05-21T00:22:10.854Z,2.00
2023-05-21T00:24:20.103Z,1.90
2023-05-21T00:26:32.706Z,2.70
2023-05-21T00:28:41.931Z,2.10
2023-05-21T00:30:51.276Z,2.27
2023-05-21T00:33:02.759Z,2.57
2023-05-21T00:35:12.215Z,2.30
2023-05-21T00:37:20.844Z,2.20
2023-05-21T00:39:29.678Z,1.90
2023-05-21T00:41:43.264Z,2.40
2023-05-21T00:43:53.129Z,2.30
2023-05-21T00:46:01.786Z,2.37
2023-05-21T00:48:10.763Z,2.30
2023-05-21T00:50:19.447Z,2.93
2023-05-21T00:52:28.755Z,2.27
2023-05-21T00:54:37.968Z,2.73
2023-05-21T00:56:49.296Z,2.43
2023-05-21T00:58:58.690Z,2.40
2023-05-21T01:01:14.220Z,2.00
2023-05-21T01:03:23.573Z,2.40
2023-05-21T01:05:33.208Z,2.50
2023-05-21T01:07:43.484Z,2.53
2023-05-21T01:09:52.413Z,2.33
2023-05-21T01:12:03.417Z,2.53
2023-05-21T01:14:13.241Z,2.30
2023-05-21T01:16:22.147Z,2.23
2023-05-21T01:18:35.597Z,2.30
2023-05-21T01:20:48.568Z,2.40
2023-05-21T01:22:59.592Z,2.70
2023-05-21T01:25:08.822Z,2.40
2023-05-21T01:27:18.041Z,2.50
2023-05-21T01:29:26.748Z,2.37
2023-05-21T01:31:40.407Z,2.23
2023-05-21T01:33:50.988Z,2.50
2023-05-21T01:36:03.144Z,2.20
2023-05-21T01:38:16.122Z,2.43
2023-05-21T01:40:28.883Z,2.30
2023-05-21T01:42:38.432Z,2.53
2023-05-21T01:44:49.199Z,2.80
2023-05-21T01:46:59.133Z,2.53
2023-05-21T01:49:08.739Z,2.60
2023-05-21T01:51:18.363Z,2.73
2023-05-21T01:53:28.996Z,2.40
2023-05-21T01:55:42.288Z,2.77
2023-05-21T01:57:51.283Z,2.30
2023-05-21T02:00:01.365Z,2.47
2023-05-21T02:02:10.396Z,2.63
2023-05-21T02:04:19.329Z,2.43
2023-05-21T02:06:28.099Z,2.63
2023-05-21T02:08:39.205Z,2.50
2023-05-21T02:10:48.895Z,2.70
2023-05-21T02:12:57.733Z,2.50
2023-05-21T02:15:07.374Z,2.60
2023-05-21T02:17:17.770Z,2.50
2023-05-21T02:19:27.116Z,2.67
2023-05-21T02:21:36.410Z,2.73
2023-05-21T02:23:46.977Z,2.83
2023-05-21T02:25:56.087Z,2.40
2023-05-21T02:28:05.235Z,2.80
2023-05-21T02:30:14.741Z,2.33
2023-05-21T02:32:24.027Z,2.20
2023-05-21T02:34:33.438Z,2.60
2023-05-21T02:36:43.138Z,2.50
2023-05-21T02:38:53.881Z,2.63
2023-05-21T02:41:02.784Z,2.50
2023-05-21T02:43:13.498Z,2.60
2023-05-21T02:45:23.646Z,2.67
2023-05-21T02:47:32.295Z,2.20
2023-05-21T02:49:41.702Z,2.30
2023-05-21T02:51:50.827Z,2.00
2023-05-21T02:54:01.693Z,2.80
2023-05-21T02:56:10.510Z,2.40
2023-05-21T02:58:19.665Z,2.43
2023-05-21T03:00:28.443Z,2.40
2023-05-21T03:02:37.906Z,2.43
2023-05-21T03:04:47.926Z,2.30
2023-05-21T03:06:56.917Z,2.33
2023-05-21T03:09:08.043Z,2.40
2023-05-21T03:11:16.934Z,2.23
2023-05-21T03:13:25.690Z,2.47
2023-05-21T03:15:35.169Z,2.60
2023-05-21T03:17:44.611Z,2.47
2023-05-21T03:19:54.768Z,2.53
2023-05-21T03:22:03.932Z,2.40
2023-05-21T03:24:15.264Z,2.43
2023-05-21T03:26:24.108Z,2.50
2023-05-21T03:28:33.939Z,2.20
2023-05-21T03:30:46.407Z,2.40
2023-05-21T03:32:56.596Z,2.53
2023-05-21T03:35:06.495Z,2.70
2023-05-21T03:37:15.336Z,2.47
2023-05-21T03:39:26.049Z,2.53
2023-05-21T03:41:35.200Z,2.20
2023-05-21T03:43:44.316Z,2.27
2023-05-21T03:45:53.383Z,2.10
2023-05-21T03:48:03.005Z,2.40
2023-05-21T03:50:12.524Z,2.20
2023-05-21T03:52:21.545Z,2.73
2023-05-21T03:54:32.647Z,2.70
2023-05-21T03:56:41.622Z,2.40
2023-05-21T03:58:50.321Z,2.60
2023-05-21T04:00:59.259Z,2.30
2023-05-21T04:03:08.728Z,2.20
2023-05-21T04:05:18.018Z,2.40
2023-05-21T04:07:27.489Z,2.40
2023-05-21T04:09:38.062Z,2.70
2023-05-21T04:11:47.156Z,2.33
2023-05-21T04:13:55.841Z,2.40
2023-05-21T04:16:04.441Z,2.20
2023-05-21T04:18:13.941Z,2.20
2023-05-21T04:20:22.714Z,2.40
2023-05-21T04:22:31.540Z,2.17
2023-05-21T04:24:42.781Z,2.33
2023-05-21T04:26:51.798Z,2.40
2023-05-21T04:29:03.347Z,2.33
2023-05-21T04:31:14.117Z,2.40
2023-05-21T04:33:23.261Z,2.10
2023-05-21T04:35:32.456Z,2.20
2023-05-21T04:37:42.217Z,2.27
2023-05-21T04:39:53.902Z,2.27
2023-05-21T04:42:03.654Z,2.80
2023-05-21T04:44:15.208Z,2.20
2023-05-21T04:46:27.060Z,2.30
2023-05-21T04:48:36.216Z,2.33
2023-05-21T04:50:44.911Z,2.33
2023-05-21T04:52:54.975Z,2.10
2023-05-21T04:55:05.656Z,2.10
2023-05-21T04:57:14.570Z,2.30
2023-05-21T04:59:23.623Z,2.30
2023-05-21T05:01:32.434Z,1.80
2023-05-21T05:03:41.277Z,1.70
2023-05-21T05:05:50.462Z,2.13
2023-05-21T05:07:59.467Z,1.70
2023-05-21T05:10:11.056Z,1.73
2023-05-21T05:12:20.046Z,1.70
2023-05-21T05:14:28.999Z,1.70
2023-05-21T05:16:38.433Z,1.90
2023-05-21T05:18:47.565Z,1.87
2023-05-21T05:20:56.577Z,1.50
2023-05-21T05:23:05.709Z,1.77
2023-05-21T05:25:16.061Z,1.60
2023-05-21T05:27:24.671Z,1.50
2023-05-21T05:29:33.971Z,1.37
2023-05-21T05:31:42.742Z,1.60
2023-05-21T05:33:51.643Z,1.30
2023-05-21T05:36:00.276Z,1.30
2023-05-21T05:38:09.433Z,1.40
2023-05-21T05:40:20.256Z,1.50
2023-05-21T05:42:29.366Z,1.37
2023-05-21T05:44:38.620Z,1.50
2023-05-21T05:46:47.748Z,1.50
2023-05-21T05:48:56.559Z,1.40
2023-05-21T05:51:05.669Z,1.70
2023-05-21T05:53:14.716Z,1.33
2023-05-21T05:55:27.132Z,1.40
2023-05-21T05:57:36.211Z,1.50
2023-05-21T05:59:45.208Z,1.40
2023-05-21T06:01:54.007Z,1.33
2023-05-21T06:04:02.635Z,1.63
2023-05-21T06:06:12.126Z,1.60
2023-05-21T06:08:21.484Z,1.53
2023-05-21T06:10:31.467Z,1.70
2023-05-21T06:12:40.092Z,1.47
2023-05-21T06:14:49.412Z,1.67
2023-05-21T06:16:58.601Z,1.70
2023-05-21T06:19:07.530Z,1.33
2023-05-21T06:21:16.237Z,1.50
2023-05-21T06:23:25.821Z,1.57
2023-05-21T06:25:36.237Z,1.60
2023-05-21T06:27:45.120Z,1.37
2023-05-21T06:29:54.273Z,1.57
2023-05-21T06:32:03.336Z,1.70
2023-05-21T06:34:12.252Z,1.80
2023-05-21T06:36:21.690Z,1.70
2023-05-21T06:38:30.476Z,1.60
2023-05-21T06:40:41.451Z,1.73
2023-05-21T06:42:50.456Z,1.60
2023-05-21T06:44:59.394Z,1.57
2023-05-21T06:47:08.173Z,1.80
2023-05-21T06:49:17.198Z,1.77
2023-05-21T06:51:25.917Z,1.40
2023-05-21T06:53:35.046Z,1.70
2023-05-21T06:55:45.993Z,1.90
2023-05-21T06:57:54.729Z,1.60
2023-05-21T07:00:03.636Z,1.70
2023-05-21T07:02:12.394Z,2.00
2023-05-21T07:04:21.334Z,1.60
2023-05-21T07:06:30.484Z,2.20
2023-05-21T07:08:39.550Z,1.87
2023-05-21T07:10:50.048Z,2.30
2023-05-21T07:12:59.322Z,2.00
2023-05-21T07:15:09.177Z,1.73
2023-05-21T07:17:18.006Z,1.97
2023-05-21T07:19:27.319Z,2.00
2023-05-21T07:21:36.149Z,2.00
2023-05-21T07:23:45.298Z,2.13
2023-05-21T07:25:56.016Z,2.10
2023-05-21T07:28:06.542Z,1.87
2023-05-21T07:30:16.486Z,2.00
2023-05-21T07:32:26.985Z,2.27
2023-05-21T07:34:35.631Z,2.00
2023-05-21T07:36:45.053Z,2.03
2023-05-21T07:38:54.095Z,2.40
2023-05-21T07:41:04.360Z,1.90
2023-05-21T07:43:13.286Z,2.07
2023-05-21T07:45:22.085Z,1.90
2023-05-21T07:47:31.485Z,2.10
2023-05-21T07:49:40.194Z,2.17
2023-05-21T07:51:49.223Z,1.93
2023-05-21T07:53:58.473Z,2.00
2023-05-21T07:56:09.471Z,1.70
2023-05-21T07:58:19.195Z,2.10
2023-05-21T08:00:28.190Z,1.90
2023-05-21T08:02:36.846Z,2.37
2023-05-21T08:04:46.034Z,2.30
2023-05-21T08:06:54.995Z,2.37
2023-05-21T08:09:03.789Z,2.10
2023-05-21T08:11:14.684Z,2.23
2023-05-21T08:13:23.304Z,2.17
2023-05-21T08:15:32.024Z,1.90
2023-05-21T08:17:41.300Z,2.47
2023-05-21T08:19:50.341Z,2.30
2023-05-21T08:21:59.337Z,1.97
2023-05-21T08:24:09.143Z,1.93
2023-05-21T08:26:20.269Z,1.90
2023-05-21T08:28:29.173Z,2.50
2023-05-21T08:30:37.803Z,2.13
2023-05-21T08:32:46.846Z,2.30
2023-05-21T08:34:55.664Z,2.47
2023-05-21T08:37:04.681Z,2.40
2023-05-21T08:39:14.511Z,2.20
2023-05-21T08:41:25.396Z,2.10
2023-05-21T08:43:34.618Z,1.87
2023-05-21T08:45:44.319Z,2.00
2023-05-21T08:47:57.895Z,2.00
2023-05-21T08:50:07.161Z,2.00
2023-05-21T08:52:16.225Z,1.90
2023-05-21T08:54:25.370Z,2.13
2023-05-21T08:56:35.976Z,1.97
2023-05-21T08:58:45.391Z,2.33
2023-05-21T09:00:54.772Z,3.13
2023-05-21T09:03:07.817Z,3.23
2023-05-21T09:05:17.985Z,2.57
2023-05-21T09:07:29.375Z,2.70
2023-05-21T09:09:42.408Z,2.30
2023-05-21T09:11:53.545Z,2.33
2023-05-21T09:14:02.490Z,3.03
2023-05-21T09:16:12.634Z,2.63
2023-05-21T09:18:21.189Z,2.67
2023-05-21T09:20:30.698Z,2.63
2023-05-21T09:22:39.828Z,2.20
2023-05-21T09:24:48.928Z,2.10
2023-05-21T09:26:59.596Z,2.17
2023-05-21T09:29:08.963Z,2.10
2023-05-21T09:31:17.804Z,2.40
2023-05-21T09:33:27.652Z,1.87
2023-05-21T09:35:38.307Z,2.30
2023-05-21T09:37:47.443Z,2.13
2023-05-21T09:39:56.461Z,2.20
2023-05-21T09:42:07.040Z,2.20
2023-05-21T09:44:16.602Z,2.40
2023-05-21T09:46:27.748Z,2.27
2023-05-21T09:48:37.955Z,2.40
2023-05-21T09:50:47.016Z,2.57
2023-05-21T09:52:56.471Z,2.27
2023-05-21T09:55:05.322Z,2.43
2023-05-21T09:57:16.700Z,2.20
2023-05-21T09:59:25.388Z,2.27
2023-05-21T10:01:34.624Z,2.50
2023-05-21T10:03:44.320Z,2.50
2023-05-21T10:05:54.805Z,2.27
2023-05-21T10:08:04.549Z,2.47
2023-05-21T10:10:15.057Z,2.50
2023-05-21T10:12:25.858Z,2.53
2023-05-21T10:14:36.272Z,2.47
2023-05-21T10:16:45.598Z,2.70
2023-05-21T10:18:55.815Z,2.10
2023-05-21T10:21:05.148Z,2.00
2023-05-21T10:23:14.308Z,1.90
2023-05-21T10:25:23.136Z,2.30
2023-05-21T10:27:35.858Z,2.53
2023-05-21T10:29:46.065Z,2.27
2023-05-21T10:31:55.438Z,3.17
2023-05-21T10:34:07.245Z,4.00
2023-05-21T10:36:18.653Z,3.53
2023-05-21T10:38:28.197Z,3.57
2023-05-21T10:40:37.897Z,4.87
2023-05-21T10:42:58.686Z,3.53
2023-05-21T10:45:11.705Z,2.50
2023-05-21T10:47:29.636Z,4.43
2023-05-21T10:49:45.202Z,2.13
2023-05-21T10:52:04.707Z,1.97
2023-05-21T10:54:37.540Z,1.93
2023-05-21T10:56:49.122Z,1.90
2023-05-21T10:59:10.107Z,2.27
2023-05-21T11:01:20.015Z,2.27
2023-05-21T11:03:29.547Z,3.17
2023-05-21T11:05:42.496Z,2.10
2023-05-21T11:07:56.454Z,2.70
2023-05-21T11:10:26.173Z,2.70
2023-05-21T11:12:36.653Z,1.90
2023-05-21T11:14:58.023Z,3.93
2023-05-21T11:17:11.913Z,2.80
2023-05-21T11:19:21.358Z,2.40
2023-05-21T11:21:36.289Z,1.80
2023-05-21T11:23:51.519Z,1.90
2023-05-21T11:26:03.623Z,1.87
2023-05-21T11:28:12.776Z,2.03
2023-05-21T11:30:23.218Z,3.17
2023-05-21T11:32:31.957Z,3.23
2023-05-21T11:34:46.410Z,3.97
2023-05-21T11:37:15.296Z,2.73
2023-05-21T11:39:28.849Z,3.43
2023-05-21T11:41:51.859Z,3.40
2023-05-21T11:44:03.024Z,3.30
2023-05-21T11:46:14.383Z,4.17
2023-05-21T11:48:26.003Z,4.10
2023-05-21T11:50:37.278Z,4.23
2023-05-21T11:52:46.779Z,4.60
2023-05-21T11:54:57.667Z,4.70
2023-05-21T11:57:08.643Z,3.50
2023-05-21T11:59:19.010Z,4.43
2023-05-21T12:01:32.032Z,3.70
2023-05-21T12:03:40.741Z,4.70
2023-05-21T12:05:50.356Z,3.33
2023-05-21T12:07:59.438Z,4.50
2023-05-21T12:10:08.735Z,4.57
2023-05-21T12:12:18.239Z,3.20
2023-05-21T12:14:27.329Z,4.20
2023-05-21T12:16:38.003Z,3.70
2023-05-21T12:18:46.908Z,3.67
2023-05-21T12:20:55.861Z,3.20
2023-05-21T12:23:04.986Z,3.07
2023-05-21T12:25:13.966Z,4.10
2023-05-21T12:27:23.883Z,4.07
2023-05-21T12:29:33.932Z,3.53
2023-05-21T12:31:51.395Z,2.77
2023-05-21T12:34:02.439Z,4.30
2023-05-21T12:36:11.457Z,3.80
2023-05-21T12:38:20.588Z,5.47
2023-05-21T12:40:37.755Z,4.20
2023-05-21T12:42:47.276Z,4.40
2023-05-21T12:44:56.096Z,4.83
2023-05-21T12:47:07.102Z,4.83
2023-05-21T12:49:30.708Z,4.47
2023-05-21T12:51:41.295Z,4.47
2023-05-21T12:53:50.263Z,3.03
2023-05-21T12:56:09.240Z,5.90
2023-05-21T12:58:18.196Z,6.00
2023-05-21T13:00:27.076Z,5.40
2023-05-21T13:02:40.946Z,5.37
2023-05-21T13:04:50.484Z,6.57
2023-05-21T13:06:59.715Z,6.53
2023-05-21T13:09:08.856Z,5.33
2023-05-21T13:11:17.995Z,5.67
2023-05-21T13:13:27.310Z,6.93
2023-05-21T13:15:36.448Z,4.90
2023-05-21T13:17:48.485Z,5.30
2023-05-21T13:20:09.298Z,6.50
2023-05-21T13:22:18.509Z,5.70
2023-05-21T13:24:27.382Z,3.60
2023-05-21T13:26:36.673Z,5.67
2023-05-21T13:28:45.836Z,5.43
2023-05-21T13:30:55.267Z,4.60
2023-05-21T13:33:06.017Z,3.63
2023-05-21T13:35:16.930Z,4.53
2023-05-21T13:37:27.192Z,2.67
2023-05-21T13:39:36.351Z,2.83
2023-05-21T13:41:45.298Z,2.60
2023-05-21T13:43:54.173Z,2.67
2023-05-21T13:46:03.056Z,2.70
2023-05-21T13:48:13.609Z,2.50
2023-05-21T13:50:22.751Z,2.57
2023-05-21T13:52:31.617Z,2.33
2023-05-21T13:54:40.716Z,2.70
2023-05-21T13:56:49.380Z,3.03
2023-05-21T13:58:58.514Z,2.83
2023-05-21T14:01:08.360Z,2.30
2023-05-21T14:03:18.923Z,2.77
2023-05-21T14:05:27.934Z,2.93
2023-05-21T14:07:37.014Z,2.10
2023-05-21T14:09:46.209Z,2.30
2023-05-21T14:11:55.339Z,2.20
2023-05-21T14:14:04.955Z,2.20
2023-05-21T14:16:13.662Z,2.30
2023-05-21T14:18:24.058Z,3.03
2023-05-21T14:20:33.506Z,2.10
2023-05-21T14:22:42.834Z,2.20
2023-05-21T14:24:52.898Z,2.10
2023-05-21T14:27:01.840Z,1.90
2023-05-21T14:29:11.370Z,2.10
2023-05-21T14:31:21.585Z,2.10
2023-05-21T14:33:33.099Z,2.23
2023-05-21T14:35:44.374Z,2.20
2023-05-21T14:37:53.543Z,2.03
2023-05-21T14:40:03.096Z,2.43
2023-05-21T14:42:12.134Z,2.50
2023-05-21T14:44:21.579Z,2.20
2023-05-21T14:46:30.424Z,2.23
2023-05-21T14:48:41.684Z,2.30
2023-05-21T14:50:51.745Z,2.20
2023-05-21T14:53:00.604Z,2.60
2023-05-21T14:55:10.131Z,2.20
2023-05-21T14:57:19.157Z,2.20
2023-05-21T14:59:27.951Z,2.47
2023-05-21T15:01:36.826Z,2.10
2023-05-21T15:03:47.867Z,2.37
2023-05-21T15:05:56.934Z,2.50
2023-05-21T15:08:06.422Z,2.10
2023-05-21T15:10:18.483Z,2.20
2023-05-21T15:12:27.858Z,2.10
2023-05-21T15:14:36.946Z,2.00
2023-05-21T15:16:45.631Z,2.27
2023-05-21T15:18:57.039Z,2.30
2023-05-21T15:21:06.337Z,2.20
2023-05-21T15:23:17.700Z,2.23
2023-05-21T15:25:26.612Z,2.10
2023-05-21T15:27:35.660Z,2.40
2023-05-21T15:29:46.405Z,2.30
2023-05-21T15:31:55.677Z,2.30
2023-05-21T15:34:05.756Z,2.13
2023-05-21T15:36:14.836Z,2.83
2023-05-21T15:38:23.869Z,2.43
2023-05-21T15:40:33.821Z,2.30
2023-05-21T15:42:42.652Z,2.30
2023-05-21T15:44:51.776Z,2.67
2023-05-21T15:47:01.439Z,2.30
2023-05-21T15:49:12.255Z,2.40
2023-05-21T15:51:21.460Z,2.47
2023-05-21T15:53:30.192Z,2.30
2023-05-21T15:55:39.232Z,2.40
2023-05-21T15:57:50.222Z,2.60
2023-05-21T15:59:59.922Z,2.50
2023-05-21T16:02:09.623Z,2.90
2023-05-21T16:04:20.580Z,2.50
2023-05-21T16:06:29.700Z,2.50
2023-05-21T16:08:38.332Z,2.43
2023-05-21T16:10:47.730Z,2.57
2023-05-21T16:12:56.992Z,2.43
2023-05-21T16:15:06.162Z,2.43
2023-05-21T16:17:14.868Z,2.20
2023-05-21T16:19:25.580Z,2.30
2023-05-21T16:21:34.795Z,2.50
2023-05-21T16:23:44.087Z,2.50
2023-05-21T16:25:53.064Z,2.40
2023-05-21T16:28:02.042Z,2.30
2023-05-21T16:30:12.056Z,2.30
2023-05-21T16:32:21.900Z,2.50
2023-05-21T16:34:34.580Z,2.30
2023-05-21T16:36:43.375Z,2.13
2023-05-21T16:38:52.378Z,2.63
2023-05-21T16:41:01.684Z,2.27
2023-05-21T16:43:10.526Z,2.07
2023-05-21T16:45:21.556Z,2.03
2023-05-21T16:47:30.365Z,2.20
2023-05-21T16:49:41.136Z,2.40
2023-05-21T16:51:50.236Z,2.53
2023-05-21T16:53:58.922Z,2.10
2023-05-21T16:56:07.719Z,2.00
2023-05-21T16:58:16.864Z,2.30
2023-05-21T17:00:25.937Z,2.07
2023-05-21T17:02:34.641Z,2.30
2023-05-21T17:04:46.338Z,2.20
2023-05-21T17:06:55.119Z,2.17
2023-05-21T17:09:04.202Z,2.47
2023-05-21T17:11:13.418Z,2.40
2023-05-21T17:13:23.428Z,2.30
2023-05-21T17:15:32.432Z,2.60
2023-05-21T17:17:41.720Z,2.17
2023-05-21T17:19:51.848Z,2.30
2023-05-21T17:22:00.880Z,2.20
2023-05-21T17:24:09.561Z,2.60
2023-05-21T17:26:18.248Z,2.10
2023-05-21T17:28:27.398Z,2.40
2023-05-21T17:30:36.102Z,2.30
2023-05-21T17:32:45.200Z,2.33
2023-05-21T17:34:55.811Z,2.10
2023-05-21T17:37:05.170Z,2.10
2023-05-21T17:39:14.239Z,2.50
2023-05-21T17:41:25.352Z,2.40
2023-05-21T17:43:33.969Z,2.17
2023-05-21T17:45:42.753Z,2.00
2023-05-21T17:47:51.414Z,2.07
2023-05-21T17:50:02.171Z,2.00
2023-05-21T17:52:11.661Z,2.33
2023-05-21T17:54:21.447Z,1.60
2023-05-21T17:56:30.011Z,2.27
2023-05-21T17:58:38.882Z,2.20
2023-05-21T18:00:48.079Z,2.13
2023-05-21T18:02:56.610Z,1.97
2023-05-21T18:05:07.008Z,2.30
2023-05-21T18:07:16.149Z,2.03
2023-05-21T18:09:25.183Z,2.43
2023-05-21T18:11:34.128Z,2.20
2023-05-21T18:13:43.058Z,2.57
2023-05-21T18:15:52.521Z,2.20
2023-05-21T18:18:01.223Z,2.37
2023-05-21T18:20:14.057Z,2.63
2023-05-21T18:22:23.192Z,3.50
2023-05-21T18:24:31.939Z,3.50
2023-05-21T18:26:40.751Z,3.67
2023-05-21T18:28:50.138Z,4.50
2023-05-21T18:31:01.009Z,4.53
2023-05-21T18:33:11.520Z,4.23
2023-05-21T18:35:22.973Z,4.53
2023-05-21T18:37:32.147Z,4.63
2023-05-21T18:39:41.101Z,4.27
2023-05-21T18:41:51.725Z,4.30
2023-05-21T18:44:06.162Z,3.80
2023-05-21T18:46:15.319Z,3.70
2023-05-21T18:48:24.660Z,3.77
2023-05-21T18:50:37.330Z,4.50
2023-05-21T18:52:46.756Z,4.27
2023-05-21T18:54:56.373Z,4.00
2023-05-21T18:57:05.015Z,2.60
2023-05-21T18:59:14.026Z,2.70
2023-05-21T19:01:23.753Z,3.20
2023-05-21T19:03:32.977Z,3.10
2023-05-21T19:05:43.922Z,3.33
2023-05-21T19:07:53.139Z,3.53
2023-05-21T19:10:02.617Z,3.27
2023-05-21T19:12:11.774Z,2.97
2023-05-21T19:14:21.220Z,3.43
2023-05-21T19:16:30.615Z,2.97
2023-05-21T19:18:43.397Z,2.20
2023-05-21T19:20:54.462Z,2.90
2023-05-21T19:23:04.516Z,3.07
2023-05-21T19:25:13.452Z,3.03
2023-05-21T19:27:23.041Z,2.50
2023-05-21T19:29:32.265Z,3.03
2023-05-21T19:31:41.331Z,2.93
2023-05-21T19:33:50.323Z,3.00
2023-05-21T19:36:01.396Z,2.80
2023-05-21T19:38:11.574Z,2.90
2023-05-21T19:40:22.664Z,2.47
2023-05-21T19:42:31.276Z,3.03
2023-05-21T19:44:41.773Z,2.40
2023-05-21T19:46:50.807Z,2.10
2023-05-21T19:48:59.457Z,2.40
2023-05-21T19:51:10.168Z,2.20
2023-05-21T19:53:19.391Z,2.13
2023-05-21T19:55:28.443Z,2.40
2023-05-21T19:57:37.293Z,2.20
2023-05-21T19:59:46.332Z,2.33
2023-05-21T20:01:55.099Z,2.30
2023-05-21T20:04:03.961Z,2.47
2023-05-21T20:06:15.820Z,2.10
2023-05-21T20:08:24.665Z,2.30
2023-05-21T20:10:33.662Z,2.17
2023-05-21T20:12:42.305Z,2.03
2023-05-21T20:14:51.363Z,2.27
2023-05-21T20:17:00.791Z,2.40
2023-05-21T20:19:10.838Z,2.03
2023-05-21T20:21:21.490Z,2.20
2023-05-21T20:23:30.490Z,2.20
2023-05-21T20:25:39.860Z,2.30
2023-05-21T20:27:49.327Z,2.00
2023-05-21T20:29:58.257Z,1.90
2023-05-21T20:32:07.311Z,2.17
2023-05-21T20:34:17.873Z,2.10
2023-05-21T20:36:30.544Z,2.37
2023-05-21T20:38:42.366Z,1.90
2023-05-21T20:40:51.302Z,2.00
2023-05-21T20:43:01.694Z,2.30
2023-05-21T20:45:12.890Z,1.90
2023-05-21T20:47:23.477Z,1.83
2023-05-21T20:49:33.389Z,1.60
2023-05-21T20:51:43.732Z,2.20
2023-05-21T20:53:52.339Z,1.97
2023-05-21T20:56:01.813Z,2.10
2023-05-21T20:58:10.826Z,2.17
2023-05-21T21:00:20.112Z,2.13
2023-05-21T21:02:29.350Z,2.20
2023-05-21T21:04:39.882Z,2.00
2023-05-21T21:06:50.538Z,2.07
2023-05-21T21:08:59.509Z,2.23
2023-05-21T21:11:08.200Z,1.90
2023-05-21T21:13:16.846Z,2.37
2023-05-21T21:15:25.744Z,1.80
2023-05-21T21:17:34.410Z,2.07
2023-05-21T21:19:43.205Z,2.10
2023-05-21T21:21:54.056Z,2.13
2023-05-21T21:24:02.866Z,2.17
2023-05-21T21:26:11.766Z,2.10
2023-05-21T21:28:21.129Z,1.90
2023-05-21T21:30:29.848Z,2.17
2023-05-21T21:32:38.637Z,1.90
2023-05-21T21:34:47.377Z,1.87
2023-05-21T21:36:57.368Z,2.10
2023-05-21T21:39:06.584Z,1.97
2023-05-21T21:41:15.685Z,2.10
2023-05-21T21:43:24.419Z,2.00
2023-05-21T21:45:33.542Z,2.17
2023-05-21T21:47:42.740Z,2.63
2023-05-21T21:49:51.901Z,2.23
2023-05-21T21:52:02.626Z,2.30
2023-05-21T21:54:11.476Z,2.17
2023-05-21T21:56:21.007Z,2.00
2023-05-21T21:58:29.536Z,2.20
2023-05-21T22:00:38.634Z,2.30
2023-05-21T22:02:48.366Z,2.00
2023-05-21T22:04:57.629Z,2.20
2023-05-21T22:07:11.120Z,2.03
2023-05-21T22:09:22.866Z,2.40
2023-05-21T22:11:31.849Z,2.20
2023-05-21T22:13:41.891Z,2.13
2023-05-21T22:15:51.691Z,2.33
2023-05-21T22:18:02.647Z,2.17
2023-05-21T22:20:11.951Z,1.83
2023-05-21T22:22:23.287Z,2.00
2023-05-21T22:24:33.352Z,2.03
2023-05-21T22:26:42.346Z,2.10
2023-05-21T22:28:53.071Z,2.47
2023-05-21T22:31:02.282Z,2.17
2023-05-21T22:33:11.676Z,2.20
2023-05-21T22:35:21.322Z,2.30
2023-05-21T22:37:32.368Z,2.60
2023-05-21T22:39:41.875Z,2.63
2023-05-21T22:41:50.947Z,2.43
2023-05-21T22:44:00.046Z,2.27
2023-05-21T22:46:09.298Z,2.80
2023-05-21T22:48:18.333Z,2.97
2023-05-21T22:50:29.430Z,2.80
2023-05-21T22:52:39.789Z,2.37
2023-05-21T22:54:49.021Z,2.50
2023-05-21T22:56:58.026Z,2.80
2023-05-21T22:59:07.340Z,2.23
2023-05-21T23:01:16.483Z,2.40
2023-05-21T23:03:25.286Z,2.27
2023-05-21T23:05:34.010Z,2.40
2023-05-21T23:07:45.160Z,2.40
2023-05-21T23:09:54.165Z,2.53
2023-05-21T23:12:02.999Z,2.40
2023-05-21T23:14:11.550Z,2.60
2023-05-21T23:16:20.219Z,2.50
2023-05-21T23:18:29.366Z,2.20
2023-05-21T23:20:41.462Z,2.50
2023-05-21T23:22:52.386Z,2.30
2023-05-21T23:25:01.012Z,2.40
2023-05-21T23:27:09.718Z,2.33
2023-05-21T23:29:19.425Z,2.30
2023-05-21T23:31:28.670Z,2.40
2023-05-21T23:33:37.480Z,2.47
2023-05-21T23:35:46.212Z,2.23
2023-05-21T23:37:57.452Z,2.50
2023-05-21T23:40:07.266Z,2.50
2023-05-21T23:42:16.133Z,2.40
2023-05-21T23:44:24.990Z,2.50
2023-05-21T23:46:33.823Z,2.40
2023-05-21T23:48:42.496Z,2.30
2023-05-21T23:50:51.575Z,2.37
2023-05-21T23:53:02.603Z,2.53
2023-05-21T23:55:15.139Z,2.67
2023-05-21T23:57:24.056Z,2.77
2023-05-21T23:59:33.157Z,2.60
